Terminal Aerodrome Forecast
Issued by NWS

Home | Current Version | Previous Version | Graphics & Text | Print | Product List | Glossary On
Versions: 1 2 3 4 5 6 7 8 9 10 11 12 13 14 15 16 17 18 19 20 21 22 23 24 25 26 27 28 29 30
394
FTUS43 KLOT 150300 AAA
TAFORD
TAF AMD
KORD 150300Z 1503/1606 17012KT P6SM OVC045
     FM150700 19012KT P6SM VCSH OVC040
     FM151000 19012KT 5SM -SHRA SCT020 OVC035
     FM151200 20010KT 3SM -RA BR OVC008
     FM151800 25012G18KT P6SM SCT008 BKN015
     FM152000 28016G24KT P6SM SCT020
     FM160000 29014G22KT P6SM SKC=

USA.gov is the U.S. government's official web portal to all federal, state and local government web resources and services.